sensor_id;sensor_type;location;lat;lon;timestamp;pressure;altitude;pressure_sealevel;temperature;humidity
71239;BME280;61342;51.442;7.370;2023-03-22T00:00:25;99554.59;;;12.56;83.00
71239;BME280;61342;51.442;7.370;2023-03-22T00:01:26;99545.94;;;12.56;82.64
71239;BME280;61342;51.442;7.370;2023-03-22T00:02:30;99548.59;;;12.54;82.65
71239;BME280;61342;51.442;7.370;2023-03-22T00:03:30;99552.84;;;12.53;82.65
71239;BME280;61342;51.442;7.370;2023-03-22T00:04:31;99549.59;;;12.56;82.98
71239;BME280;61342;51.442;7.370;2023-03-22T00:05:31;99558.22;;;12.56;82.86
71239;BME280;61342;51.442;7.370;2023-03-22T00:06:32;99553.25;;;12.57;83.01
71239;BME280;61342;51.442;7.370;2023-03-22T00:07:32;99548.03;;;12.55;82.91
71239;BME280;61342;51.442;7.370;2023-03-22T00:08:33;99547.50;;;12.57;83.02
71239;BME280;61342;51.442;7.370;2023-03-22T00:09:33;99546.69;;;12.56;82.63
71239;BME280;61342;51.442;7.370;2023-03-22T00:10:36;99554.78;;;12.58;82.90
71239;BME280;61342;51.442;7.370;2023-03-22T00:11:40;99547.50;;;12.57;82.72
71239;BME280;61342;51.442;7.370;2023-03-22T00:12:40;99547.69;;;12.59;83.03
71239;BME280;61342;51.442;7.370;2023-03-22T00:13:40;99546.13;;;12.58;82.75
71239;BME280;61342;51.442;7.370;2023-03-22T00:14:42;99543.25;;;12.58;83.13
71239;BME280;61342;51.442;7.370;2023-03-22T00:15:42;99542.69;;;12.59;83.01
71239;BME280;61342;51.442;7.370;2023-03-22T00:16:44;99547.69;;;12.59;82.97
71239;BME280;61342;51.442;7.370;2023-03-22T00:17:48;99540.38;;;12.58;82.97
71239;BME280;61342;51.442;7.370;2023-03-22T00:18:51;99538.84;;;12.57;83.09
71239;BME280;61342;51.442;7.370;2023-03-22T00:19:51;99542.69;;;12.59;82.82
71239;BME280;61342;51.442;7.370;2023-03-22T00:20:55;99542.16;;;12.61;82.88
71239;BME280;61342;51.442;7.370;2023-03-22T00:21:56;99542.16;;;12.61;82.80
71239;BME280;61342;51.442;7.370;2023-03-22T00:22:56;99541.16;;;12.58;82.69
71239;BME280;61342;51.442;7.370;2023-03-22T00:23:56;99547.13;;;12.60;82.70
71239;BME280;61342;51.442;7.370;2023-03-22T00:24:57;99539.03;;;12.59;82.61
71239;BME280;61342;51.442;7.370;2023-03-22T00:25:58;99525.94;;;12.58;82.51
71239;BME280;61342;51.442;7.370;2023-03-22T00:26:58;99539.03;;;12.59;82.72
71239;BME280;61342;51.442;7.370;2023-03-22T00:27:59;99539.28;;;12.61;82.85
71239;BME280;61342;51.442;7.370;2023-03-22T00:28:59;99532.28;;;12.56;82.46
71239;BME280;61342;51.442;7.370;2023-03-22T00:30:00;99535.59;;;12.60;82.82
71239;BME280;61342;51.442;7.370;2023-03-22T00:31:00;99532.94;;;12.62;82.84
71239;BME280;61342;51.442;7.370;2023-03-22T00:32:01;99534.03;;;12.59;82.75
71239;BME280;61342;51.442;7.370;2023-03-22T00:33:04;99532.50;;;12.58;82.58
71239;BME280;61342;51.442;7.370;2023-03-22T00:34:04;99524.84;;;12.61;82.66
71239;BME280;61342;51.442;7.370;2023-03-22T00:35:05;99532.13;;;12.62;82.94
71239;BME280;61342;51.442;7.370;2023-03-22T00:36:09;99537.16;;;12.61;82.79
71239;BME280;61342;51.442;7.370;2023-03-22T00:37:09;99534.81;;;12.60;82.64
71239;BME280;61342;51.442;7.370;2023-03-22T00:38:10;99529.81;;;12.60;82.69
71239;BME280;61342;51.442;7.370;2023-03-22T00:39:13;99532.13;;;12.62;82.58
71239;BME280;61342;51.442;7.370;2023-03-22T00:40:13;99529.81;;;12.60;82.64
71239;BME280;61342;51.442;7.370;2023-03-22T00:41:17;99531.56;;;12.63;82.38
71239;BME280;61342;51.442;7.370;2023-03-22T00:42:18;99535.25;;;12.64;82.79
71239;BME280;61342;51.442;7.370;2023-03-22T00:43:18;99532.38;;;12.64;82.74
71239;BME280;61342;51.442;7.370;2023-03-22T00:44:18;99530.63;;;12.61;82.77
71239;BME280;61342;51.442;7.370;2023-03-22T00:45:19;99530.06;;;12.62;82.74
71239;BME280;61342;51.442;7.370;2023-03-22T00:46:20;99527.94;;;12.63;82.82
71239;BME280;61342;51.442;7.370;2023-03-22T00:47:21;99527.16;;;12.62;82.66
71239;BME280;61342;51.442;7.370;2023-03-22T00:48:22;99530.81;;;12.63;82.71
71239;BME280;61342;51.442;7.370;2023-03-22T00:49:22;99527.94;;;12.63;82.55
71239;BME280;61342;51.442;7.370;2023-03-22T00:50:24;99526.59;;;12.64;82.45
71239;BME280;61342;51.442;7.370;2023-03-22T00:51:25;99519.84;;;12.61;82.68
71239;BME280;61342;51.442;7.370;2023-03-22T00:52:25;99523.50;;;12.62;82.73
71239;BME280;61342;51.442;7.370;2023-03-22T00:53:26;99525.06;;;12.63;82.51
71239;BME280;61342;51.442;7.370;2023-03-22T00:54:28;99521.41;;;12.62;82.30
71239;BME280;61342;51.442;7.370;2023-03-22T00:55:28;99522.16;;;12.63;82.41
71239;BME280;61342;51.442;7.370;2023-03-22T00:56:29;99517.94;;;12.64;82.38
71239;BME280;61342;51.442;7.370;2023-03-22T00:57:32;99507.13;;;12.57;82.57
71239;BME280;61342;51.442;7.370;2023-03-22T00:58:33;99502.31;;;12.59;82.56
71239;BME280;61342;51.442;7.370;2023-03-22T00:59:33;99513.09;;;12.59;82.57
71239;BME280;61342;51.442;7.370;2023-03-22T01:00:37;99508.31;;;12.61;82.49
71239;BME280;61342;51.442;7.370;2023-03-22T01:01:38;99486.28;;;12.51;82.76
71239;BME280;61342;51.442;7.370;2023-03-22T01:02:40;99504.66;;;12.61;82.59
71239;BME280;61342;51.442;7.370;2023-03-22T01:03:42;99500.22;;;12.60;82.79
71239;BME280;61342;51.442;7.370;2023-03-22T01:04:43;99509.06;;;12.62;82.68
71239;BME280;61342;51.442;7.370;2023-03-22T01:05:48;99509.06;;;12.62;83.33
71239;BME280;61342;51.442;7.370;2023-03-22T01:06:48;99490.59;;;12.57;82.71
71239;BME280;61342;51.442;7.370;2023-03-22T01:07:49;99496.22;;;12.63;82.76
71239;BME280;61342;51.442;7.370;2023-03-22T01:08:50;99484.50;;;12.61;82.83
71239;BME280;61342;51.442;7.370;2023-03-22T01:09:51;99480.38;;;12.56;82.53
71239;BME280;61342;51.442;7.370;2023-03-22T01:10:51;99484.06;;;12.57;82.68
71239;BME280;61342;51.442;7.370;2023-03-22T01:11:51;99482.13;;;12.59;83.01
71239;BME280;61342;51.442;7.370;2023-03-22T01:12:52;99482.13;;;12.59;82.73
71239;BME280;61342;51.442;7.370;2023-03-22T01:13:53;99482.94;;;12.60;82.99
71239;BME280;61342;51.442;7.370;2023-03-22T01:14:55;99484.25;;;12.59;83.02
71239;BME280;61342;51.442;7.370;2023-03-22T01:15:55;99482.84;;;12.52;83.16
71239;BME280;61342;51.442;7.370;2023-03-22T01:16:55;99477.88;;;12.53;82.83
71239;BME280;61342;51.442;7.370;2023-03-22T01:17:56;99487.91;;;12.59;83.17
71239;BME280;61342;51.442;7.370;2023-03-22T01:18:57;99486.38;;;12.58;83.27
71239;BME280;61342;51.442;7.370;2023-03-22T01:19:57;99478.06;;;12.55;83.64
71239;BME280;61342;51.442;7.370;2023-03-22T01:20:58;99477.72;;;12.58;83.24
71239;BME280;61342;51.442;7.370;2023-03-22T01:21:59;99481.94;;;12.57;83.26
71239;BME280;61342;51.442;7.370;2023-03-22T01:22:59;99486.94;;;12.57;83.43
71239;BME280;61342;51.442;7.370;2023-03-22T01:23:59;99474.44;;;12.54;83.58
71239;BME280;61342;51.442;7.370;2023-03-22T01:25:00;99488.28;;;12.56;83.18
71239;BME280;61342;51.442;7.370;2023-03-22T01:26:00;99489.03;;;12.56;83.96
71239;BME280;61342;51.442;7.370;2023-03-22T01:27:01;99485.97;;;12.54;83.56
71239;BME280;61342;51.442;7.370;2023-03-22T01:28:01;99490.16;;;12.53;83.72
71239;BME280;61342;51.442;7.370;2023-03-22T01:29:02;99485.72;;;12.52;83.65
71239;BME280;61342;51.442;7.370;2023-03-22T01:30:04;99470.56;;;12.52;84.01
71239;BME280;61342;51.442;7.370;2023-03-22T01:31:05;99478.63;;;12.53;83.96
71239;BME280;61342;51.442;7.370;2023-03-22T01:32:05;99471.13;;;12.50;83.94
71239;BME280;61342;51.442;7.370;2023-03-22T01:33:06;99477.88;;;12.53;84.17
71239;BME280;61342;51.442;7.370;2023-03-22T01:34:07;99477.88;;;12.53;83.93
71239;BME280;61342;51.442;7.370;2023-03-22T01:35:08;99471.88;;;12.51;83.99
71239;BME280;61342;51.442;7.370;2023-03-22T01:36:09;99473.63;;;12.54;84.19
71239;BME280;61342;51.442;7.370;2023-03-22T01:37:09;99467.81;;;12.46;84.10
71239;BME280;61342;51.442;7.370;2023-03-22T01:38:10;99476.50;;;12.54;84.14
71239;BME280;61342;51.442;7.370;2023-03-22T01:39:10;99467.88;;;12.54;84.16
71239;BME280;61342;51.442;7.370;2023-03-22T01:40:13;99470.75;;;12.54;84.32
71239;BME280;61342;51.442;7.370;2023-03-22T01:41:15;99467.88;;;12.54;84.27
71239;BME280;61342;51.442;7.370;2023-03-22T01:42:16;99468.25;;;12.50;84.40
71239;BME280;61342;51.442;7.370;2023-03-22T01:43:17;99472.31;;;12.55;84.12
71239;BME280;61342;51.442;7.370;2023-03-22T01:44:20;99463.47;;;12.53;84.17
71239;BME280;61342;51.442;7.370;2023-03-22T01:46:26;99469.00;;;12.51;84.11
71239;BME280;61342;51.442;7.370;2023-03-22T01:47:27;99467.09;;;12.53;84.25
71239;BME280;61342;51.442;7.370;2023-03-22T01:48:33;99469.22;;;12.53;84.44
71239;BME280;61342;51.442;7.370;2023-03-22T01:49:36;99467.09;;;12.53;84.55
71239;BME280;61342;51.442;7.370;2023-03-22T01:50:40;99462.66;;;12.52;84.61
71239;BME280;61342;51.442;7.370;2023-03-22T01:51:44;99461.91;;;12.52;84.67
71239;BME280;61342;51.442;7.370;2023-03-22T01:52:46;99459.03;;;12.52;84.65
71239;BME280;61342;51.442;7.370;2023-03-22T01:53:50;99455.16;;;12.49;84.59
71239;BME280;61342;51.442;7.370;2023-03-22T01:54:52;99459.03;;;12.52;84.80
71239;BME280;61342;51.442;7.370;2023-03-22T01:55:54;99452.47;;;12.51;84.67
71239;BME280;61342;51.442;7.370;2023-03-22T01:56:56;99448.81;;;12.51;84.69
71239;BME280;61342;51.442;7.370;2023-03-22T01:57:57;99458.22;;;12.51;84.66
71239;BME280;61342;51.442;7.370;2023-03-22T01:58:58;99449.38;;;12.49;84.93
71239;BME280;61342;51.442;7.370;2023-03-22T01:59:58;99446.50;;;12.49;84.93
71239;BME280;61342;51.442;7.370;2023-03-22T02:00:59;99446.50;;;12.49;84.70
71239;BME280;61342;51.442;7.370;2023-03-22T02:02:00;99446.50;;;12.49;85.03
71239;BME280;61342;51.442;7.370;2023-03-22T02:03:03;99441.31;;;12.48;84.92
71239;BME280;61342;51.442;7.370;2023-03-22T02:04:10;99446.09;;;12.45;84.62
71239;BME280;61342;51.442;7.370;2023-03-22T02:05:15;99444.19;;;12.48;85.04
71239;BME280;61342;51.442;7.370;2023-03-22T02:06:17;99441.31;;;12.48;84.73
71239;BME280;61342;51.442;7.370;2023-03-22T02:07:18;99442.88;;;12.49;84.96
71239;BME280;61342;51.442;7.370;2023-03-22T02:08:27;99442.88;;;12.49;85.01
71239;BME280;61342;51.442;7.370;2023-03-22T02:09:28;99428.00;;;12.45;85.11
71239;BME280;61342;51.442;7.370;2023-03-22T02:10:29;99429.78;;;12.48;85.22
71239;BME280;61342;51.442;7.370;2023-03-22T02:11:39;99429.78;;;12.48;85.08
71239;BME280;61342;51.442;7.370;2023-03-22T02:12:47;99434.75;;;12.47;85.20
71239;BME280;61342;51.442;7.370;2023-03-22T02:21:55;99416.28;;;12.43;85.35
71239;BME280;61342;51.442;7.370;2023-03-22T02:42:56;99403.25;;;12.29;85.82
71239;BME280;61342;51.442;7.370;2023-03-22T02:45:30;99399.97;;;12.25;86.24
71239;BME280;61342;51.442;7.370;2023-03-22T02:46:44;99394.00;;;12.23;86.20
71239;BME280;61342;51.442;7.370;2023-03-22T02:48:00;99403.97;;;12.22;86.34
71239;BME280;61342;51.442;7.370;2023-03-22T02:50:29;99388.00;;;12.21;85.85
71239;BME280;61342;51.442;7.370;2023-03-22T02:51:47;99387.81;;;12.19;86.24
71239;BME280;61342;51.442;7.370;2023-03-22T02:52:54;99382.81;;;12.19;86.51
71239;BME280;61342;51.442;7.370;2023-03-22T02:54:20;99379.94;;;12.19;86.31
71239;BME280;61342;51.442;7.370;2023-03-22T02:55:25;99387.03;;;12.18;86.64
71239;BME280;61342;51.442;7.370;2023-03-22T02:56:43;99388.16;;;12.15;86.64
71239;BME280;61342;51.442;7.370;2023-03-22T02:57:55;99372.19;;;12.14;86.82
71239;BME280;61342;51.442;7.370;2023-03-22T02:58:59;99375.31;;;12.16;86.85
71239;BME280;61342;51.442;7.370;2023-03-22T03:00:01;99373.00;;;12.15;86.82
71239;BME280;61342;51.442;7.370;2023-03-22T03:01:06;99370.69;;;12.13;86.70
71239;BME280;61342;51.442;7.370;2023-03-22T03:02:10;99379.31;;;12.13;86.82
71239;BME280;61342;51.442;7.370;2023-03-22T03:03:13;99378.75;;;12.15;86.77
71239;BME280;61342;51.442;7.370;2023-03-22T03:04:20;99374.88;;;12.12;86.54
71239;BME280;61342;51.442;7.370;2023-03-22T03:05:24;99376.44;;;12.13;86.67
71239;BME280;61342;51.442;7.370;2023-03-22T03:06:29;99380.09;;;12.14;86.74
71239;BME280;61342;51.442;7.370;2023-03-22T03:07:32;99377.53;;;12.10;86.72
71239;BME280;61342;51.442;7.370;2023-03-22T03:08:34;99376.78;;;12.10;86.86
71239;BME280;61342;51.442;7.370;2023-03-22T03:09:37;99381.78;;;12.09;86.98
71239;BME280;61342;51.442;7.370;2023-03-22T03:10:40;99373.69;;;12.08;87.02
71239;BME280;61342;51.442;7.370;2023-03-22T03:11:45;99373.13;;;12.09;86.79
71239;BME280;61342;51.442;7.370;2023-03-22T03:12:46;99379.47;;;12.08;86.73
71239;BME280;61342;51.442;7.370;2023-03-22T03:13:48;99365.59;;;12.07;87.11
71239;BME280;61342;51.442;7.370;2023-03-22T03:14:48;99370.59;;;12.06;87.27
71239;BME280;61342;51.442;7.370;2023-03-22T03:15:52;99369.03;;;12.05;86.95
71239;BME280;61342;51.442;7.370;2023-03-22T03:19:40;99370.75;;;12.01;87.18
71239;BME280;61342;51.442;7.370;2023-03-22T03:21:07;99372.63;;;11.98;87.47
71239;BME280;61342;51.442;7.370;2023-03-22T03:22:29;;;;11.99;
71239;BME280;61342;51.442;7.370;2023-03-22T03:24:47;99368.75;;;11.96;87.60
71239;BME280;61342;51.442;7.370;2023-03-22T03:27:38;99354.28;;;11.88;87.62
71239;BME280;61342;51.442;7.370;2023-03-22T03:28:56;99353.50;;;11.88;87.69
71239;BME280;61342;51.442;7.370;2023-03-22T03:30:10;99357.94;;;11.89;88.04
71239;BME280;61342;51.442;7.370;2023-03-22T03:32:33;99357.72;;;11.87;87.61
71239;BME280;61342;51.442;7.370;2023-03-22T03:33:38;99365.03;;;11.88;87.80
71239;BME280;61342;51.442;7.370;2023-03-22T03:34:58;99372.69;;;11.85;88.24
71239;BME280;61342;51.442;7.370;2023-03-22T03:36:04;99361.97;;;11.86;88.28
71239;BME280;61342;51.442;7.370;2023-03-22T03:37:11;99360.41;;;11.85;88.43
71239;BME280;61342;51.442;7.370;2023-03-22T03:38:20;99357.28;;;11.83;88.43
71239;BME280;61342;51.442;7.370;2023-03-22T03:39:24;99357.28;;;11.83;88.69
71239;BME280;61342;51.442;7.370;2023-03-22T03:40:32;99362.28;;;11.82;88.58
71239;BME280;61342;51.442;7.370;2023-03-22T03:41:34;99356.31;;;11.80;88.47
71239;BME280;61342;51.442;7.370;2023-03-22T03:42:42;99358.63;;;11.82;88.56
71239;BME280;61342;51.442;7.370;2023-03-22T03:43:46;99349.22;;;11.81;88.75
71239;BME280;61342;51.442;7.370;2023-03-22T03:44:47;99349.22;;;11.81;88.88
71239;BME280;61342;51.442;7.370;2023-03-22T03:45:48;99345.91;;;11.77;88.80
71239;BME280;61342;51.442;7.370;2023-03-22T03:46:50;99352.66;;;11.80;88.97
71239;BME280;61342;51.442;7.370;2023-03-22T03:47:54;99349.78;;;11.80;88.93
71239;BME280;61342;51.442;7.370;2023-03-22T03:48:56;99357.66;;;11.79;89.29
71239;BME280;61342;51.442;7.370;2023-03-22T03:49:57;99344.59;;;11.78;89.20
71239;BME280;61342;51.442;7.370;2023-03-22T03:50:59;99345.91;;;11.77;88.91
71239;BME280;61342;51.442;7.370;2023-03-22T03:52:00;99351.69;;;11.77;89.26
71239;BME280;61342;51.442;7.370;2023-03-22T03:53:01;99348.22;;;11.79;89.28
71239;BME280;61342;51.442;7.370;2023-03-22T03:54:02;99347.03;;;11.74;88.97
71239;BME280;61342;51.442;7.370;2023-03-22T03:55:02;99345.72;;;11.75;89.17
71239;BME280;61342;51.442;7.370;2023-03-22T03:56:03;99338.59;;;11.76;89.38
71239;BME280;61342;51.442;7.370;2023-03-22T03:57:03;99350.91;;;11.77;89.40
71239;BME280;61342;51.442;7.370;2023-03-22T03:58:04;99345.72;;;11.75;89.24
71239;BME280;61342;51.442;7.370;2023-03-22T03:59:04;99350.13;;;11.76;89.31
71239;BME280;61342;51.442;7.370;2023-03-22T04:00:05;99352.25;;;11.76;89.30
71239;BME280;61342;51.442;7.370;2023-03-22T04:01:06;99342.84;;;11.75;89.48
71239;BME280;61342;51.442;7.370;2023-03-22T04:02:06;99346.25;;;11.74;89.17
71239;BME280;61342;51.442;7.370;2023-03-22T04:03:07;99342.41;;;11.71;89.82
71239;BME280;61342;51.442;7.370;2023-03-22T04:04:07;99339.53;;;11.71;89.56
71239;BME280;61342;51.442;7.370;2023-03-22T04:05:09;99354.13;;;11.73;89.49
71239;BME280;61342;51.442;7.370;2023-03-22T04:06:10;99343.19;;;11.72;89.46
71239;BME280;61342;51.442;7.370;2023-03-22T04:07:10;99338.19;;;11.72;89.80
71239;BME280;61342;51.442;7.370;2023-03-22T04:08:11;99350.81;;;11.69;89.64
71239;BME280;61342;51.442;7.370;2023-03-22T04:09:11;99337.56;;;11.66;89.85
71239;BME280;61342;51.442;7.370;2023-03-22T04:10:12;99344.88;;;11.67;89.94
71239;BME280;61342;51.442;7.370;2023-03-22T04:11:12;99350.63;;;11.67;89.80
71239;BME280;61342;51.442;7.370;2023-03-22T04:12:12;99346.41;;;11.68;89.95
71239;BME280;61342;51.442;7.370;2023-03-22T04:13:13;99344.88;;;11.67;90.07
71239;BME280;61342;51.442;7.370;2023-03-22T04:14:13;99346.97;;;11.67;89.86
71239;BME280;61342;51.442;7.370;2023-03-22T04:15:14;99353.28;;;11.65;89.79
71239;BME280;61342;51.442;7.370;2023-03-22T04:16:14;99338.22;;;11.59;90.00
71239;BME280;61342;51.442;7.370;2023-03-22T04:17:15;99345.97;;;11.64;90.09
71239;BME280;61342;51.442;7.370;2023-03-22T04:18:15;99336.72;;;11.58;90.00
71239;BME280;61342;51.442;7.370;2023-03-22T04:19:16;99324.78;;;11.54;90.23
71239;BME280;61342;51.442;7.370;2023-03-22T04:20:16;99328.53;;;11.50;90.06
71239;BME280;61342;51.442;7.370;2023-03-22T04:21:17;99330.94;;;11.58;90.19
71239;BME280;61342;51.442;7.370;2023-03-22T04:22:18;99323.97;;;11.54;90.63
71239;BME280;61342;51.442;7.370;2023-03-22T04:23:19;99345.22;;;11.64;90.17
71239;BME280;61342;51.442;7.370;2023-03-22T04:24:22;99332.59;;;11.54;90.58
71239;BME280;61342;51.442;7.370;2023-03-22T04:25:22;99347.09;;;11.61;90.30
71239;BME280;61342;51.442;7.370;2023-03-22T04:26:23;99329.59;;;11.59;90.39
71239;BME280;61342;51.442;7.370;2023-03-22T04:27:23;99310.06;;;11.45;90.46
71239;BME280;61342;51.442;7.370;2023-03-22T04:28:24;99321.19;;;11.48;90.79
71239;BME280;61342;51.442;7.370;2023-03-22T04:29:25;99312.56;;;11.48;90.42
71239;BME280;61342;51.442;7.370;2023-03-22T04:30:26;99337.47;;;11.59;90.22
71239;BME280;61342;51.442;7.370;2023-03-22T04:31:26;99329.31;;;11.50;90.68
71239;BME280;61342;51.442;7.370;2023-03-22T04:32:27;99341.66;;;11.58;90.67
71239;BME280;61342;51.442;7.370;2023-03-22T04:33:30;99327.66;;;11.42;90.67
71239;BME280;61342;51.442;7.370;2023-03-22T04:34:31;99326.19;;;11.48;90.65
71239;BME280;61342;51.442;7.370;2023-03-22T04:35:33;99323.66;;;11.45;90.95
71239;BME280;61342;51.442;7.370;2023-03-22T04:36:36;99337.72;;;11.48;90.81
71239;BME280;61342;51.442;7.370;2023-03-22T04:37:38;99325.91;;;11.39;90.84
71239;BME280;61342;51.442;7.370;2023-03-22T04:38:39;99323.03;;;11.39;90.88
71239;BME280;61342;51.442;7.370;2023-03-22T04:39:39;99319.16;;;11.36;90.86
71239;BME280;61342;51.442;7.370;2023-03-22T04:40:40;99328.66;;;11.44;90.92
71239;BME280;61342;51.442;7.370;2023-03-22T04:41:45;99335.16;;;11.45;90.91
71239;BME280;61342;51.442;7.370;2023-03-22T04:42:46;99326.88;;;11.41;91.35
71239;BME280;61342;51.442;7.370;2023-03-22T04:43:46;99328.22;;;11.40;91.03
71239;BME280;61342;51.442;7.370;2023-03-22T04:44:50;99345.81;;;11.50;90.89
71239;BME280;61342;51.442;7.370;2023-03-22T04:45:50;99338.03;;;11.45;91.08
71239;BME280;61342;51.442;7.370;2023-03-22T04:46:53;99342.16;;;11.49;91.21
71239;BME280;61342;51.442;7.370;2023-03-22T04:47:54;99324.34;;;11.38;90.81
71239;BME280;61342;51.442;7.370;2023-03-22T04:48:55;99322.22;;;11.38;91.08
71239;BME280;61342;51.442;7.370;2023-03-22T04:49:56;99318.16;;;11.34;91.07
71239;BME280;61342;51.442;7.370;2023-03-22T04:50:56;99349.97;;;11.48;91.25
71239;BME280;61342;51.442;7.370;2023-03-22T04:51:57;99326.88;;;11.41;91.26
71239;BME280;61342;51.442;7.370;2023-03-22T04:52:58;99332.09;;;11.43;90.98
71239;BME280;61342;51.442;7.370;2023-03-22T04:53:58;99321.25;;;11.36;91.31
71239;BME280;61342;51.442;7.370;2023-03-22T04:54:59;99329.31;;;11.37;91.46
71239;BME280;61342;51.442;7.370;2023-03-22T04:56:00;99348.22;;;11.46;91.33
71239;BME280;61342;51.442;7.370;2023-03-22T04:57:02;99340.72;;;11.43;91.43
71239;BME280;61342;51.442;7.370;2023-03-22T04:58:03;99327.56;;;11.34;91.35
71239;BME280;61342;51.442;7.370;2023-03-22T04:59:03;99319.34;;;11.38;91.39
71239;BME280;61342;51.442;7.370;2023-03-22T05:00:04;99317.16;;;11.31;91.57
71239;BME280;61342;51.442;7.370;2023-03-22T05:01:09;99319.50;;;11.33;91.54
71239;BME280;61342;51.442;7.370;2023-03-22T05:02:10;99336.72;;;11.46;91.56
71239;BME280;61342;51.442;7.370;2023-03-22T05:03:10;99321.03;;;11.34;91.44
71239;BME280;61342;51.442;7.370;2023-03-22T05:04:11;99325.91;;;11.39;91.50
71239;BME280;61342;51.442;7.370;2023-03-22T05:05:11;99318.94;;;11.34;91.48
71239;BME280;61342;51.442;7.370;2023-03-22T05:06:12;99312.59;;;11.36;91.51
71239;BME280;61342;51.442;7.370;2023-03-22T05:07:13;99302.78;;;11.31;91.40
71239;BME280;61342;51.442;7.370;2023-03-22T05:08:13;99316.63;;;11.33;91.62
71239;BME280;61342;51.442;7.370;2023-03-22T05:09:15;99328.00;;;11.38;91.61
71239;BME280;61342;51.442;7.370;2023-03-22T05:10:15;99318.59;;;11.38;91.59
71239;BME280;61342;51.442;7.370;2023-03-22T05:11:16;99333.41;;;11.42;91.41
71239;BME280;61342;51.442;7.370;2023-03-22T05:12:19;99311.41;;;11.31;91.49
71239;BME280;61342;51.442;7.370;2023-03-22T05:13:20;99338.38;;;11.41;91.66
71239;BME280;61342;51.442;7.370;2023-03-22T05:14:21;99326.44;;;11.37;91.62
71239;BME280;61342;51.442;7.370;2023-03-22T05:15:22;99326.78;;;11.34;91.54
71239;BME280;61342;51.442;7.370;2023-03-22T05:16:23;99337.19;;;11.37;91.72
71239;BME280;61342;51.442;7.370;2023-03-22T05:17:23;99343.16;;;11.39;91.45
71239;BME280;61342;51.442;7.370;2023-03-22T05:18:23;99344.91;;;11.42;91.84
71239;BME280;61342;51.442;7.370;2023-03-22T05:19:25;99336.06;;;11.40;91.63
71239;BME280;61342;51.442;7.370;2023-03-22T05:20:25;99340.28;;;11.39;91.80
71239;BME280;61342;51.442;7.370;2023-03-22T05:21:26;99336.06;;;11.40;91.82
71239;BME280;61342;51.442;7.370;2023-03-22T05:22:27;99335.84;;;11.38;91.42
71239;BME280;61342;51.442;7.370;2023-03-22T05:23:28;99337.19;;;11.37;91.64
71239;BME280;61342;51.442;7.370;2023-03-22T05:24:29;99352.00;;;11.41;91.73
71239;BME280;61342;51.442;7.370;2023-03-22T05:25:30;99332.97;;;11.38;91.81
71239;BME280;61342;51.442;7.370;2023-03-22T05:26:30;99323.13;;;11.33;91.94
71239;BME280;61342;51.442;7.370;2023-03-22T05:27:30;99328.34;;;11.35;91.65
71239;BME280;61342;51.442;7.370;2023-03-22T05:28:33;99334.88;;;11.35;91.95
71239;BME280;61342;51.442;7.370;2023-03-22T05:29:35;99336.06;;;11.40;92.16
71239;BME280;61342;51.442;7.370;2023-03-22T05:30:36;99339.72;;;11.40;92.00
71239;BME280;61342;51.442;7.370;2023-03-22T05:31:36;99323.34;;;11.35;92.01
71239;BME280;61342;51.442;7.370;2023-03-22T05:32:37;99322.22;;;11.38;92.09
71239;BME280;61342;51.442;7.370;2023-03-22T05:33:42;99333.53;;;11.36;92.24
71239;BME280;61342;51.442;7.370;2023-03-22T05:34:45;99331.09;;;11.40;92.14
71239;BME280;61342;51.442;7.370;2023-03-22T05:35:48;99334.72;;;11.41;92.05
71239;BME280;61342;51.442;7.370;2023-03-22T05:36:49;99327.44;;;11.40;91.95
71239;BME280;61342;51.442;7.370;2023-03-22T05:37:50;99336.06;;;11.40;92.06
71239;BME280;61342;51.442;7.370;2023-03-22T05:38:51;99339.16;;;11.42;92.03
71239;BME280;61342;51.442;7.370;2023-03-22T05:39:51;99312.19;;;11.32;92.21
71239;BME280;61342;51.442;7.370;2023-03-22T05:40:52;99317.94;;;11.32;92.03
71239;BME280;61342;51.442;7.370;2023-03-22T05:41:53;99320.63;;;11.30;92.17
71239;BME280;61342;51.442;7.370;2023-03-22T05:42:53;99319.34;;;11.38;92.18
71239;BME280;61342;51.442;7.370;2023-03-22T05:43:54;99327.66;;;11.42;92.28
71239;BME280;61342;51.442;7.370;2023-03-22T05:44:54;99329.53;;;11.39;92.07
71239;BME280;61342;51.442;7.370;2023-03-22T05:45:54;99335.72;;;11.43;92.07
71239;BME280;61342;51.442;7.370;2023-03-22T05:46:55;99335.16;;;11.45;92.25
71239;BME280;61342;51.442;7.370;2023-03-22T05:47:55;99333.97;;;11.40;92.33
71239;BME280;61342;51.442;7.370;2023-03-22T05:48:56;99339.78;;;11.48;92.28
71239;BME280;61342;51.442;7.370;2023-03-22T05:49:56;99324.97;;;11.44;92.26
71239;BME280;61342;51.442;7.370;2023-03-22T05:50:57;99325.22;;;11.46;92.20
71239;BME280;61342;51.442;7.370;2023-03-22T05:51:57;99329.63;;;11.47;92.02
71239;BME280;61342;51.442;7.370;2023-03-22T05:52:57;99304.22;;;11.38;92.33
71239;BME280;61342;51.442;7.370;2023-03-22T05:53:58;99331.16;;;11.48;92.33
71239;BME280;61342;51.442;7.370;2023-03-22T05:54:58;99320.78;;;11.45;92.16
71239;BME280;61342;51.442;7.370;2023-03-22T05:55:59;99311.38;;;11.44;92.23
71239;BME280;61342;51.442;7.370;2023-03-22T05:56:59;99309.50;;;11.47;92.27
71239;BME280;61342;51.442;7.370;2023-03-22T05:58:00;99316.78;;;11.48;92.25
71239;BME280;61342;51.442;7.370;2023-03-22T05:59:02;99320.00;;;11.44;92.02
71239;BME280;61342;51.442;7.370;2023-03-22T06:00:08;99340.91;;;11.57;91.82
71239;BME280;61342;51.442;7.370;2023-03-22T06:01:12;99318.22;;;11.54;92.18
71239;BME280;61342;51.442;7.370;2023-03-22T06:02:15;99331.72;;;11.59;91.97
71239;BME280;61342;51.442;7.370;2023-03-22T06:03:15;99324.97;;;11.56;92.24
71239;BME280;61342;51.442;7.370;2023-03-22T06:04:17;99312.56;;;11.48;92.14
71239;BME280;61342;51.442;7.370;2023-03-22T06:05:17;99296.44;;;11.46;91.98
71239;BME280;61342;51.442;7.370;2023-03-22T06:06:20;99317.13;;;11.57;91.58
71239;BME280;61342;51.442;7.370;2023-03-22T06:07:20;99304.19;;;11.51;91.95
71239;BME280;61342;51.442;7.370;2023-03-22T06:08:21;99320.19;;;11.59;91.91